sensor_id;sensor_type;location;lat;lon;timestamp;P1;durP1;ratioP1;P2;durP2;ratioP2
12976;SDS011;6553;48.412;9.514;2022-09-12T00:01:58;2.50;;;2.30;;
12976;SDS011;6553;48.412;9.514;2022-09-12T00:04:23;2.47;;;2.38;;
12976;SDS011;6553;48.412;9.514;2022-09-12T00:06:51;2.47;;;2.38;;
12976;SDS011;6553;48.412;9.514;2022-09-12T00:09:17;2.65;;;2.45;;
12976;SDS011;6553;48.412;9.514;2022-09-12T00:11:43;2.10;;;2.00;;
12976;SDS011;6553;48.412;9.514;2022-09-12T00:14:12;2.63;;;2.40;;
12976;SDS011;6553;48.412;9.514;2022-09-12T00:16:41;2.40;;;2.30;;
12976;SDS011;6553;48.412;9.514;2022-09-12T00:19:07;2.60;;;2.40;;
12976;SDS011;6553;48.412;9.514;2022-09-12T00:21:35;2.40;;;2.20;;
12976;SDS011;6553;48.412;9.514;2022-09-12T00:24:03;2.67;;;2.47;;
12976;SDS011;6553;48.412;9.514;2022-09-12T00:26:29;2.70;;;2.50;;
12976;SDS011;6553;48.412;9.514;2022-09-12T00:28:56;2.50;;;2.40;;
12976;SDS011;6553;48.412;9.514;2022-09-12T00:31:23;2.40;;;2.20;;
12976;SDS011;6553;48.412;9.514;2022-09-12T00:33:51;2.70;;;2.50;;
12976;SDS011;6553;48.412;9.514;2022-09-12T00:36:21;2.63;;;2.42;;
12976;SDS011;6553;48.412;9.514;2022-09-12T00:38:49;2.22;;;2.13;;
12976;SDS011;6553;48.412;9.514;2022-09-12T00:41:19;2.42;;;2.33;;
12976;SDS011;6553;48.412;9.514;2022-09-12T00:43:55;2.30;;;2.20;;
12976;SDS011;6553;48.412;9.514;2022-09-12T00:46:26;3.35;;;2.35;;
12976;SDS011;6553;48.412;9.514;2022-09-12T00:51:54;2.47;;;2.38;;
12976;SDS011;6553;48.412;9.514;2022-09-12T00:54:37;2.20;;;2.10;;
12976;SDS011;6553;48.412;9.514;2022-09-12T00:57:12;2.30;;;2.20;;
12976;SDS011;6553;48.412;9.514;2022-09-12T00:59:41;2.33;;;2.22;;
12976;SDS011;6553;48.412;9.514;2022-09-12T01:02:40;2.40;;;2.20;;
12976;SDS011;6553;48.412;9.514;2022-09-12T01:05:09;2.50;;;2.40;;
12976;SDS011;6553;48.412;9.514;2022-09-12T01:07:37;2.58;;;2.42;;
12976;SDS011;6553;48.412;9.514;2022-09-12T01:10:05;2.40;;;2.30;;
12976;SDS011;6553;48.412;9.514;2022-09-12T01:12:33;2.50;;;2.40;;
12976;SDS011;6553;48.412;9.514;2022-09-12T01:15:03;2.20;;;2.10;;
12976;SDS011;6553;48.412;9.514;2022-09-12T01:29:34;2.38;;;2.25;;
12976;SDS011;6553;48.412;9.514;2022-09-12T01:35:38;2.10;;;2.00;;
12976;SDS011;6553;48.412;9.514;2022-09-12T01:38:49;2.33;;;2.22;;
12976;SDS011;6553;48.412;9.514;2022-09-12T01:47:58;2.20;;;2.10;;
12976;SDS011;6553;48.412;9.514;2022-09-12T01:50:38;2.67;;;2.50;;
12976;SDS011;6553;48.412;9.514;2022-09-12T01:53:12;2.03;;;1.92;;
12976;SDS011;6553;48.412;9.514;2022-09-12T01:56:05;2.83;;;2.50;;
12976;SDS011;6553;48.412;9.514;2022-09-12T01:58:51;2.22;;;2.03;;
12976;SDS011;6553;48.412;9.514;2022-09-12T02:01:44;2.53;;;2.33;;
12976;SDS011;6553;48.412;9.514;2022-09-12T02:04:29;2.47;;;2.30;;
12976;SDS011;6553;48.412;9.514;2022-09-12T02:07:05;2.20;;;2.10;;
12976;SDS011;6553;48.412;9.514;2022-09-12T02:09:45;2.30;;;2.20;;
12976;SDS011;6553;48.412;9.514;2022-09-12T02:12:24;2.38;;;2.28;;
12976;SDS011;6553;48.412;9.514;2022-09-12T02:15:01;2.65;;;2.45;;
12976;SDS011;6553;48.412;9.514;2022-09-12T02:17:33;2.47;;;2.38;;
12976;SDS011;6553;48.412;9.514;2022-09-12T02:20:26;2.25;;;2.10;;
12976;SDS011;6553;48.412;9.514;2022-09-12T02:22:58;2.47;;;2.38;;
12976;SDS011;6553;48.412;9.514;2022-09-12T02:25:26;2.22;;;1.92;;
12976;SDS011;6553;48.412;9.514;2022-09-12T02:28:01;2.20;;;2.10;;
12976;SDS011;6553;48.412;9.514;2022-09-12T02:30:42;2.10;;;1.90;;
12976;SDS011;6553;48.412;9.514;2022-09-12T02:33:41;2.25;;;2.10;;
12976;SDS011;6553;48.412;9.514;2022-09-12T02:36:56;2.20;;;2.10;;
12976;SDS011;6553;48.412;9.514;2022-09-12T02:39:46;2.35;;;2.17;;
12976;SDS011;6553;48.412;9.514;2022-09-12T02:42:12;1.67;;;1.58;;
12976;SDS011;6553;48.412;9.514;2022-09-12T02:44:38;2.10;;;2.00;;
12976;SDS011;6553;48.412;9.514;2022-09-12T02:47:07;2.10;;;2.00;;
12976;SDS011;6553;48.412;9.514;2022-09-12T02:49:39;2.13;;;2.03;;
12976;SDS011;6553;48.412;9.514;2022-09-12T02:52:05;2.20;;;2.10;;
12976;SDS011;6553;48.412;9.514;2022-09-12T02:54:31;2.03;;;1.92;;
12976;SDS011;6553;48.412;9.514;2022-09-12T02:56:57;2.20;;;2.10;;
12976;SDS011;6553;48.412;9.514;2022-09-12T02:59:23;2.33;;;2.20;;
12976;SDS011;6553;48.412;9.514;2022-09-12T03:10:24;2.22;;;2.03;;
12976;SDS011;6553;48.412;9.514;2022-09-12T03:13:17;2.10;;;1.90;;
12976;SDS011;6553;48.412;9.514;2022-09-12T03:22:30;2.00;;;1.90;;
12976;SDS011;6553;48.412;9.514;2022-09-12T03:25:16;1.88;;;1.77;;
12976;SDS011;6553;48.412;9.514;2022-09-12T03:32:09;2.28;;;2.17;;
12976;SDS011;6553;48.412;9.514;2022-09-12T03:34:35;2.13;;;2.03;;
12976;SDS011;6553;48.412;9.514;2022-09-12T03:37:00;1.90;;;1.80;;
12976;SDS011;6553;48.412;9.514;2022-09-12T03:39:26;2.00;;;1.90;;
12976;SDS011;6553;48.412;9.514;2022-09-12T03:41:53;2.20;;;2.10;;
12976;SDS011;6553;48.412;9.514;2022-09-12T03:44:19;2.38;;;2.28;;
12976;SDS011;6553;48.412;9.514;2022-09-12T03:46:46;2.03;;;1.92;;
12976;SDS011;6553;48.412;9.514;2022-09-12T03:49:12;2.00;;;1.90;;
12976;SDS011;6553;48.412;9.514;2022-09-12T03:51:38;2.22;;;2.08;;
12976;SDS011;6553;48.412;9.514;2022-09-12T03:54:04;2.00;;;1.90;;
12976;SDS011;6553;48.412;9.514;2022-09-12T03:56:31;2.35;;;2.15;;
12976;SDS011;6553;48.412;9.514;2022-09-12T03:58:56;1.83;;;1.73;;
12976;SDS011;6553;48.412;9.514;2022-09-12T04:01:22;2.28;;;2.08;;
12976;SDS011;6553;48.412;9.514;2022-09-12T04:03:49;2.10;;;2.00;;
12976;SDS011;6553;48.412;9.514;2022-09-12T04:06:17;2.70;;;2.08;;
12976;SDS011;6553;48.412;9.514;2022-09-12T04:08:50;2.00;;;1.90;;
12976;SDS011;6553;48.412;9.514;2022-09-12T04:11:18;2.30;;;2.20;;
12976;SDS011;6553;48.412;9.514;2022-09-12T04:13:45;2.15;;;2.05;;
12976;SDS011;6553;48.412;9.514;2022-09-12T04:16:12;1.90;;;1.80;;
12976;SDS011;6553;48.412;9.514;2022-09-12T04:18:40;1.88;;;1.77;;
12976;SDS011;6553;48.412;9.514;2022-09-12T04:21:10;1.60;;;1.50;;
12976;SDS011;6553;48.412;9.514;2022-09-12T04:23:39;2.00;;;1.90;;
12976;SDS011;6553;48.412;9.514;2022-09-12T04:26:05;1.95;;;1.85;;
12976;SDS011;6553;48.412;9.514;2022-09-12T04:28:32;1.92;;;1.83;;
12976;SDS011;6553;48.412;9.514;2022-09-12T04:31:00;1.88;;;1.77;;
12976;SDS011;6553;48.412;9.514;2022-09-12T04:33:29;2.00;;;1.90;;
12976;SDS011;6553;48.412;9.514;2022-09-12T04:35:54;2.08;;;1.98;;
12976;SDS011;6553;48.412;9.514;2022-09-12T04:38:20;2.20;;;2.10;;
12976;SDS011;6553;48.412;9.514;2022-09-12T04:40:46;2.15;;;2.05;;
12976;SDS011;6553;48.412;9.514;2022-09-12T04:43:12;2.50;;;2.30;;
12976;SDS011;6553;48.412;9.514;2022-09-12T04:45:37;1.90;;;1.80;;
12976;SDS011;6553;48.412;9.514;2022-09-12T04:48:03;2.13;;;2.03;;
12976;SDS011;6553;48.412;9.514;2022-09-12T04:50:29;2.10;;;2.00;;
12976;SDS011;6553;48.412;9.514;2022-09-12T04:52:55;2.15;;;2.05;;
12976;SDS011;6553;48.412;9.514;2022-09-12T04:55:21;2.30;;;2.10;;
12976;SDS011;6553;48.412;9.514;2022-09-12T04:57:49;1.90;;;1.80;;
12976;SDS011;6553;48.412;9.514;2022-09-12T05:00:16;2.17;;;1.98;;
12976;SDS011;6553;48.412;9.514;2022-09-12T05:02:42;1.88;;;1.77;;
12976;SDS011;6553;48.412;9.514;2022-09-12T05:05:08;2.10;;;2.00;;
12976;SDS011;6553;48.412;9.514;2022-09-12T05:07:34;1.80;;;1.70;;
12976;SDS011;6553;48.412;9.514;2022-09-12T05:10:00;2.05;;;1.95;;
12976;SDS011;6553;48.412;9.514;2022-09-12T05:12:29;2.35;;;2.15;;
12976;SDS011;6553;48.412;9.514;2022-09-12T05:14:55;2.10;;;2.00;;
12976;SDS011;6553;48.412;9.514;2022-09-12T05:17:21;1.95;;;1.85;;
12976;SDS011;6553;48.412;9.514;2022-09-12T05:19:47;2.05;;;1.92;;
12976;SDS011;6553;48.412;9.514;2022-09-12T05:22:13;2.20;;;2.10;;
12976;SDS011;6553;48.412;9.514;2022-09-12T05:24:39;2.13;;;2.03;;
12976;SDS011;6553;48.412;9.514;2022-09-12T05:27:07;1.90;;;1.80;;
12976;SDS011;6553;48.412;9.514;2022-09-12T05:29:34;2.22;;;2.13;;
12976;SDS011;6553;48.412;9.514;2022-09-12T05:32:00;2.30;;;2.10;;
12976;SDS011;6553;48.412;9.514;2022-09-12T05:34:27;2.08;;;1.98;;
12976;SDS011;6553;48.412;9.514;2022-09-12T05:36:52;2.00;;;1.90;;
12976;SDS011;6553;48.412;9.514;2022-09-12T05:39:18;2.17;;;2.08;;
12976;SDS011;6553;48.412;9.514;2022-09-12T05:41:44;2.35;;;2.25;;
12976;SDS011;6553;48.412;9.514;2022-09-12T05:44:11;2.20;;;2.00;;
12976;SDS011;6553;48.412;9.514;2022-09-12T05:46:40;2.00;;;1.90;;
12976;SDS011;6553;48.412;9.514;2022-09-12T05:49:10;2.25;;;2.10;;
12976;SDS011;6553;48.412;9.514;2022-09-12T05:51:38;1.83;;;1.73;;
12976;SDS011;6553;48.412;9.514;2022-09-12T05:54:09;2.20;;;2.10;;
12976;SDS011;6553;48.412;9.514;2022-09-12T05:56:41;2.25;;;2.10;;
12976;SDS011;6553;48.412;9.514;2022-09-12T05:59:13;2.00;;;1.83;;
12976;SDS011;6553;48.412;9.514;2022-09-12T06:01:43;2.38;;;2.28;;
12976;SDS011;6553;48.412;9.514;2022-09-12T06:04:10;2.10;;;2.00;;
12976;SDS011;6553;48.412;9.514;2022-09-12T06:06:37;2.38;;;2.17;;
12976;SDS011;6553;48.412;9.514;2022-09-12T06:09:06;1.92;;;1.83;;
12976;SDS011;6553;48.412;9.514;2022-09-12T06:11:33;2.30;;;2.10;;
12976;SDS011;6553;48.412;9.514;2022-09-12T06:14:01;1.90;;;1.80;;
12976;SDS011;6553;48.412;9.514;2022-09-12T06:16:28;2.38;;;2.17;;
12976;SDS011;6553;48.412;9.514;2022-09-12T06:18:57;3.35;;;2.00;;
12976;SDS011;6553;48.412;9.514;2022-09-12T06:21:26;2.00;;;1.90;;
12976;SDS011;6553;48.412;9.514;2022-09-12T06:23:54;2.20;;;2.10;;
12976;SDS011;6553;48.412;9.514;2022-09-12T06:26:23;2.20;;;2.10;;
12976;SDS011;6553;48.412;9.514;2022-09-12T06:28:50;2.00;;;1.90;;
12976;SDS011;6553;48.412;9.514;2022-09-12T06:31:19;1.85;;;1.75;;
12976;SDS011;6553;48.412;9.514;2022-09-12T06:33:49;1.80;;;1.70;;
12976;SDS011;6553;48.412;9.514;2022-09-12T06:36:21;2.10;;;1.90;;
12976;SDS011;6553;48.412;9.514;2022-09-12T06:38:53;1.83;;;1.70;;
12976;SDS011;6553;48.412;9.514;2022-09-12T06:41:25;1.83;;;1.73;;
12976;SDS011;6553;48.412;9.514;2022-09-12T06:43:53;1.95;;;1.83;;
12976;SDS011;6553;48.412;9.514;2022-09-12T06:46:19;2.22;;;2.03;;
12976;SDS011;6553;48.412;9.514;2022-09-12T06:48:45;2.03;;;1.90;;
12976;SDS011;6553;48.412;9.514;2022-09-12T06:51:12;2.03;;;1.83;;
12976;SDS011;6553;48.412;9.514;2022-09-12T06:53:41;2.00;;;1.90;;
12976;SDS011;6553;48.412;9.514;2022-09-12T06:56:09;2.10;;;2.00;;
12976;SDS011;6553;48.412;9.514;2022-09-12T06:58:43;2.30;;;2.10;;
12976;SDS011;6553;48.412;9.514;2022-09-12T07:01:30;2.90;;;2.63;;
12976;SDS011;6553;48.412;9.514;2022-09-12T07:04:00;3.10;;;1.95;;
12976;SDS011;6553;48.412;9.514;2022-09-12T07:06:29;1.98;;;1.88;;
12976;SDS011;6553;48.412;9.514;2022-09-12T07:09:00;2.17;;;2.08;;
12976;SDS011;6553;48.412;9.514;2022-09-12T07:11:31;2.30;;;2.10;;
12976;SDS011;6553;48.412;9.514;2022-09-12T07:14:01;2.10;;;2.00;;
12976;SDS011;6553;48.412;9.514;2022-09-12T07:16:29;2.40;;;2.10;;
12976;SDS011;6553;48.412;9.514;2022-09-12T07:18:57;2.10;;;2.00;;
12976;SDS011;6553;48.412;9.514;2022-09-12T07:21:26;2.00;;;1.90;;
12976;SDS011;6553;48.412;9.514;2022-09-12T07:23:53;2.35;;;2.13;;
12976;SDS011;6553;48.412;9.514;2022-09-12T07:26:20;2.13;;;2.00;;
12976;SDS011;6553;48.412;9.514;2022-09-12T07:28:49;2.00;;;1.90;;
12976;SDS011;6553;48.412;9.514;2022-09-12T07:31:21;2.08;;;1.98;;
12976;SDS011;6553;48.412;9.514;2022-09-12T07:33:49;1.98;;;1.88;;
12976;SDS011;6553;48.412;9.514;2022-09-12T07:36:19;1.92;;;1.83;;
12976;SDS011;6553;48.412;9.514;2022-09-12T07:38:52;1.90;;;1.80;;
12976;SDS011;6553;48.412;9.514;2022-09-12T07:41:21;1.80;;;1.70;;
12976;SDS011;6553;48.412;9.514;2022-09-12T07:43:51;1.92;;;1.83;;
12976;SDS011;6553;48.412;9.514;2022-09-12T07:46:22;1.92;;;1.83;;
12976;SDS011;6553;48.412;9.514;2022-09-12T07:48:51;1.70;;;1.60;;
12976;SDS011;6553;48.412;9.514;2022-09-12T07:51:18;3.15;;;1.80;;
12976;SDS011;6553;48.412;9.514;2022-09-12T07:53:46;2.00;;;1.90;;
12976;SDS011;6553;48.412;9.514;2022-09-12T07:56:13;1.90;;;1.80;;
12976;SDS011;6553;48.412;9.514;2022-09-12T07:58:40;1.90;;;1.80;;
12976;SDS011;6553;48.412;9.514;2022-09-12T08:01:14;2.80;;;1.85;;
12976;SDS011;6553;48.412;9.514;2022-09-12T08:03:44;1.65;;;1.55;;
12976;SDS011;6553;48.412;9.514;2022-09-12T08:06:17;2.22;;;1.58;;
12976;SDS011;6553;48.412;9.514;2022-09-12T08:08:45;2.05;;;1.95;;
12976;SDS011;6553;48.412;9.514;2022-09-12T08:11:13;1.88;;;1.77;;
12976;SDS011;6553;48.412;9.514;2022-09-12T08:13:41;1.70;;;1.60;;
12976;SDS011;6553;48.412;9.514;2022-09-12T08:16:18;1.90;;;1.80;;
12976;SDS011;6553;48.412;9.514;2022-09-12T08:18:46;2.55;;;1.65;;
12976;SDS011;6553;48.412;9.514;2022-09-12T08:23:42;1.70;;;1.60;;
12976;SDS011;6553;48.412;9.514;2022-09-12T08:26:09;1.42;;;1.35;;
12976;SDS011;6553;48.412;9.514;2022-09-12T08:28:37;1.80;;;1.70;;
12976;SDS011;6553;48.412;9.514;2022-09-12T08:31:09;1.58;;;1.48;;
12976;SDS011;6553;48.412;9.514;2022-09-12T08:33:38;1.83;;;1.20;;
12976;SDS011;6553;48.412;9.514;2022-09-12T08:38:37;1.95;;;1.85;;
12976;SDS011;6553;48.412;9.514;2022-09-12T08:49:51;1.60;;;1.50;;
12976;SDS011;6553;48.412;9.514;2022-09-12T08:57:56;1.70;;;1.60;;
12976;SDS011;6553;48.412;9.514;2022-09-12T09:00:26;1.70;;;1.60;;
12976;SDS011;6553;48.412;9.514;2022-09-12T09:16:08;1.50;;;1.40;;
12976;SDS011;6553;48.412;9.514;2022-09-12T09:18:30;1.60;;;1.50;;
12976;SDS011;6553;48.412;9.514;2022-09-12T09:21:12;1.67;;;1.58;;
12976;SDS011;6553;48.412;9.514;2022-09-12T09:23:53;1.58;;;1.38;;
12976;SDS011;6553;48.412;9.514;2022-09-12T09:26:33;1.63;;;1.52;;
12976;SDS011;6553;48.412;9.514;2022-09-12T09:29:17;1.70;;;1.50;;
12976;SDS011;6553;48.412;9.514;2022-09-12T09:31:56;1.50;;;1.40;;
12976;SDS011;6553;48.412;9.514;2022-09-12T09:34:27;1.35;;;1.25;;
12976;SDS011;6553;48.412;9.514;2022-09-12T09:37:05;1.42;;;1.33;;
12976;SDS011;6553;48.412;9.514;2022-09-12T09:40:04;1.40;;;1.30;;
12976;SDS011;6553;48.412;9.514;2022-09-12T09:45:37;1.33;;;1.30;;
12976;SDS011;6553;48.412;9.514;2022-09-12T09:48:18;1.60;;;1.50;;
12976;SDS011;6553;48.412;9.514;2022-09-12T09:51:04;1.88;;;1.52;;
12976;SDS011;6553;48.412;9.514;2022-09-12T09:53:41;1.70;;;1.60;;
12976;SDS011;6553;48.412;9.514;2022-09-12T09:56:42;1.48;;;1.38;;
12976;SDS011;6553;48.412;9.514;2022-09-12T09:59:09;1.55;;;1.45;;
12976;SDS011;6553;48.412;9.514;2022-09-12T10:01:42;1.60;;;1.50;;
12976;SDS011;6553;48.412;9.514;2022-09-12T10:04:56;1.67;;;1.58;;
12976;SDS011;6553;48.412;9.514;2022-09-12T10:07:05;1.70;;;1.60;;
12976;SDS011;6553;48.412;9.514;2022-09-12T10:09:44;1.60;;;1.50;;
12976;SDS011;6553;48.412;9.514;2022-09-12T10:12:41;1.80;;;1.65;;
12976;SDS011;6553;48.412;9.514;2022-09-12T10:15:18;1.45;;;1.35;;
12976;SDS011;6553;48.412;9.514;2022-09-12T10:17:51;1.30;;;1.20;;
12976;SDS011;6553;48.412;9.514;2022-09-12T10:20:34;1.63;;;1.52;;
12976;SDS011;6553;48.412;9.514;2022-09-12T10:23:49;1.60;;;1.50;;
12976;SDS011;6553;48.412;9.514;2022-09-12T10:26:07;1.50;;;1.40;;
12976;SDS011;6553;48.412;9.514;2022-09-12T10:28:38;1.40;;;1.30;;
12976;SDS011;6553;48.412;9.514;2022-09-12T10:31:09;1.60;;;1.40;;
12976;SDS011;6553;48.412;9.514;2022-09-12T10:33:47;1.65;;;1.55;;
12976;SDS011;6553;48.412;9.514;2022-09-12T10:36:18;1.42;;;1.35;;
12976;SDS011;6553;48.412;9.514;2022-09-12T10:38:55;1.52;;;1.45;;
12976;SDS011;6553;48.412;9.514;2022-09-12T10:41:25;1.85;;;1.75;;
12976;SDS011;6553;48.412;9.514;2022-09-12T10:44:09;1.80;;;1.70;;
12976;SDS011;6553;48.412;9.514;2022-09-12T10:46:50;1.65;;;1.55;;
12976;SDS011;6553;48.412;9.514;2022-09-12T10:51:48;1.55;;;1.45;;
12976;SDS011;6553;48.412;9.514;2022-09-12T10:54:17;1.55;;;1.45;;
12976;SDS011;6553;48.412;9.514;2022-09-12T10:56:52;2.03;;;1.60;;
12976;SDS011;6553;48.412;9.514;2022-09-12T11:00:07;1.70;;;1.60;;
12976;SDS011;6553;48.412;9.514;2022-09-12T11:05:51;1.40;;;1.30;;
12976;SDS011;6553;48.412;9.514;2022-09-12T11:11:24;3.05;;;1.60;;
12976;SDS011;6553;48.412;9.514;2022-09-12T11:14:37;1.67;;;1.58;;
12976;SDS011;6553;48.412;9.514;2022-09-12T11:25:50;1.23;;;1.23;;
12976;SDS011;6553;48.412;9.514;2022-09-12T11:28:33;1.45;;;1.45;;
12976;SDS011;6553;48.412;9.514;2022-09-12T11:34:33;1.50;;;1.40;;
12976;SDS011;6553;48.412;9.514;2022-09-12T11:37:58;1.45;;;1.35;;
12976;SDS011;6553;48.412;9.514;2022-09-12T11:43:28;1.70;;;1.60;;
12976;SDS011;6553;48.412;9.514;2022-09-12T11:46:20;2.35;;;1.45;;
12976;SDS011;6553;48.412;9.514;2022-09-12T11:51:56;1.67;;;1.55;;
12976;SDS011;6553;48.412;9.514;2022-09-12T11:54:52;1.40;;;1.30;;
12976;SDS011;6553;48.412;9.514;2022-09-12T11:57:38;1.70;;;1.60;;
12976;SDS011;6553;48.412;9.514;2022-09-12T12:00:24;1.60;;;1.50;;
12976;SDS011;6553;48.412;9.514;2022-09-12T12:05:25;1.38;;;1.35;;
12976;SDS011;6553;48.412;9.514;2022-09-12T12:08:04;3.08;;;1.40;;
12976;SDS011;6553;48.412;9.514;2022-09-12T12:10:41;1.50;;;1.40;;
12976;SDS011;6553;48.412;9.514;2022-09-12T12:13:39;1.50;;;1.40;;
12976;SDS011;6553;48.412;9.514;2022-09-12T12:21:40;1.48;;;1.38;;
12976;SDS011;6553;48.412;9.514;2022-09-12T12:26:54;1.45;;;1.35;;
12976;SDS011;6553;48.412;9.514;2022-09-12T12:34:33;1.13;;;1.10;;
12976;SDS011;6553;48.412;9.514;2022-09-12T12:47:33;2.75;;;1.88;;
12976;SDS011;6553;48.412;9.514;2022-09-12T12:52:48;1.90;;;1.70;;
12976;SDS011;6553;48.412;9.514;2022-09-12T12:55:48;1.50;;;1.40;;
12976;SDS011;6553;48.412;9.514;2022-09-12T12:58:27;2.25;;;1.80;;
12976;SDS011;6553;48.412;9.514;2022-09-12T13:01:10;2.55;;;2.00;;
12976;SDS011;6553;48.412;9.514;2022-09-12T13:03:41;1.90;;;1.67;;
12976;SDS011;6553;48.412;9.514;2022-09-12T13:06:24;2.03;;;1.42;;
12976;SDS011;6553;48.412;9.514;2022-09-12T13:09:03;2.33;;;1.60;;
12976;SDS011;6553;48.412;9.514;2022-09-12T13:11:37;1.90;;;1.45;;
12976;SDS011;6553;48.412;9.514;2022-09-12T13:14:05;2.03;;;1.60;;
12976;SDS011;6553;48.412;9.514;2022-09-12T13:17:07;1.95;;;1.75;;
12976;SDS011;6553;48.412;9.514;2022-09-12T13:19:44;1.75;;;1.55;;
12976;SDS011;6553;48.412;9.514;2022-09-12T13:22:11;2.15;;;1.58;;
12976;SDS011;6553;48.412;9.514;2022-09-12T13:24:42;1.98;;;1.77;;
12976;SDS011;6553;48.412;9.514;2022-09-12T13:27:23;2.20;;;1.40;;
12976;SDS011;6553;48.412;9.514;2022-09-12T13:30:06;1.73;;;1.63;;
12976;SDS011;6553;48.412;9.514;2022-09-12T13:32:38;2.10;;;1.63;;
12976;SDS011;6553;48.412;9.514;2022-09-12T13:37:58;2.30;;;1.30;;
12976;SDS011;6553;48.412;9.514;2022-09-12T13:40:57;1.85;;;1.55;;
12976;SDS011;6553;48.412;9.514;2022-09-12T13:43:45;1.42;;;1.30;;
12976;SDS011;6553;48.412;9.514;2022-09-12T13:46:12;2.25;;;1.60;;
12976;SDS011;6553;48.412;9.514;2022-09-12T13:48:49;1.48;;;1.30;;
12976;SDS011;6553;48.412;9.514;2022-09-12T13:51:25;1.63;;;1.52;;
12976;SDS011;6553;48.412;9.514;2022-09-12T13:53:56;1.30;;;1.20;;
12976;SDS011;6553;48.412;9.514;2022-09-12T13:56:27;1.77;;;1.50;;
12976;SDS011;6553;48.412;9.514;2022-09-12T13:58:54;1.83;;;1.60;;
12976;SDS011;6553;48.412;9.514;2022-09-12T14:01:36;1.60;;;1.50;;
12976;SDS011;6553;48.412;9.514;2022-09-12T14:04:15;1.40;;;1.30;;
12976;SDS011;6553;48.412;9.514;2022-09-12T14:07:10;1.83;;;1.65;;
12976;SDS011;6553;48.412;9.514;2022-09-12T14:09:55;1.63;;;1.13;;
12976;SDS011;6553;48.412;9.514;2022-09-12T14:12:25;1.92;;;1.38;;
12976;SDS011;6553;48.412;9.514;2022-09-12T14:18:20;2.30;;;1.50;;
12976;SDS011;6553;48.412;9.514;2022-09-12T14:20:52;1.75;;;1.40;;
12976;SDS011;6553;48.412;9.514;2022-09-12T14:23:30;1.48;;;1.38;;
12976;SDS011;6553;48.412;9.514;2022-09-12T14:25:59;2.58;;;1.52;;
12976;SDS011;6553;48.412;9.514;2022-09-12T14:28:33;1.42;;;1.33;;
12976;SDS011;6553;48.412;9.514;2022-09-12T14:33:50;1.58;;;1.48;;
12976;SDS011;6553;48.412;9.514;2022-09-12T14:36:33;1.42;;;1.30;;
12976;SDS011;6553;48.412;9.514;2022-09-12T14:39:06;1.70;;;1.40;;
12976;SDS011;6553;48.412;9.514;2022-09-12T14:41:48;1.33;;;1.23;;
12976;SDS011;6553;48.412;9.514;2022-09-12T14:44:25;1.95;;;1.38;;
12976;SDS011;6553;48.412;9.514;2022-09-12T14:46:53;1.48;;;1.23;;
12976;SDS011;6553;48.412;9.514;2022-09-12T14:49:31;1.23;;;1.15;;
12976;SDS011;6553;48.412;9.514;2022-09-12T14:52:01;1.40;;;1.30;;
12976;SDS011;6553;48.412;9.514;2022-09-12T14:57:02;1.30;;;1.20;;
12976;SDS011;6553;48.412;9.514;2022-09-12T14:59:49;1.30;;;1.15;;
12976;SDS011;6553;48.412;9.514;2022-09-12T15:09:48;1.23;;;1.13;;
12976;SDS011;6553;48.412;9.514;2022-09-12T15:12:14;1.20;;;1.10;;
12976;SDS011;6553;48.412;9.514;2022-09-12T15:14:39;2.35;;;1.27;;
12976;SDS011;6553;48.412;9.514;2022-09-12T15:17:05;1.98;;;1.20;;
12976;SDS011;6553;48.412;9.514;2022-09-12T15:19:31;1.55;;;1.13;;
12976;SDS011;6553;48.412;9.514;2022-09-12T15:21:57;1.20;;;1.10;;
12976;SDS011;6553;48.412;9.514;2022-09-12T15:24:23;1.38;;;1.10;;
12976;SDS011;6553;48.412;9.514;2022-09-12T15:26:48;1.73;;;1.10;;
12976;SDS011;6553;48.412;9.514;2022-09-12T15:29:14;1.27;;;1.17;;
12976;SDS011;6553;48.412;9.514;2022-09-12T15:31:40;1.02;;;1.00;;
12976;SDS011;6553;48.412;9.514;2022-09-12T15:34:11;1.23;;;1.13;;
12976;SDS011;6553;48.412;9.514;2022-09-12T15:36:37;1.15;;;1.00;;
12976;SDS011;6553;48.412;9.514;2022-09-12T15:39:03;1.30;;;1.20;;
12976;SDS011;6553;48.412;9.514;2022-09-12T15:41:35;1.08;;;0.95;;
12976;SDS011;6553;48.412;9.514;2022-09-12T15:44:05;1.05;;;0.98;;
12976;SDS011;6553;48.412;9.514;2022-09-12T15:46:36;1.88;;;1.10;;
12976;SDS011;6553;48.412;9.514;2022-09-12T15:49:02;1.00;;;1.00;;
12976;SDS011;6553;48.412;9.514;2022-09-12T15:51:28;1.10;;;1.00;;
12976;SDS011;6553;48.412;9.514;2022-09-12T15:53:54;1.35;;;1.25;;
12976;SDS011;6553;48.412;9.514;2022-09-12T15:56:20;2.25;;;1.10;;
12976;SDS011;6553;48.412;9.514;2022-09-12T15:58:47;1.27;;;1.27;;
12976;SDS011;6553;48.412;9.514;2022-09-12T16:01:14;1.73;;;1.10;;
12976;SDS011;6553;48.412;9.514;2022-09-12T16:03:42;1.30;;;1.20;;
12976;SDS011;6553;48.412;9.514;2022-09-12T16:06:11;1.48;;;1.05;;
12976;SDS011;6553;48.412;9.514;2022-09-12T16:08:39;0.77;;;0.77;;
12976;SDS011;6553;48.412;9.514;2022-09-12T16:11:26;1.17;;;1.00;;
12976;SDS011;6553;48.412;9.514;2022-09-12T16:13:52;1.10;;;1.05;;
12976;SDS011;6553;48.412;9.514;2022-09-12T16:16:19;1.15;;;1.05;;
12976;SDS011;6553;48.412;9.514;2022-09-12T16:18:45;1.08;;;0.98;;
12976;SDS011;6553;48.412;9.514;2022-09-12T16:21:11;0.90;;;0.90;;
12976;SDS011;6553;48.412;9.514;2022-09-12T16:23:36;1.08;;;0.90;;
12976;SDS011;6553;48.412;9.514;2022-09-12T16:26:04;1.20;;;1.10;;
12976;SDS011;6553;48.412;9.514;2022-09-12T16:28:30;1.67;;;1.10;;
12976;SDS011;6553;48.412;9.514;2022-09-12T16:31:01;1.25;;;0.77;;
12976;SDS011;6553;48.412;9.514;2022-09-12T16:33:30;1.20;;;1.00;;
12976;SDS011;6553;48.412;9.514;2022-09-12T16:36:00;1.13;;;1.10;;
12976;SDS011;6553;48.412;9.514;2022-09-12T16:38:31;1.80;;;1.20;;
12976;SDS011;6553;48.412;9.514;2022-09-12T16:41:01;1.10;;;1.02;;
12976;SDS011;6553;48.412;9.514;2022-09-12T16:43:30;1.10;;;1.10;;
12976;SDS011;6553;48.412;9.514;2022-09-12T16:46:02;1.02;;;1.02;;
12976;SDS011;6553;48.412;9.514;2022-09-12T16:48:47;1.20;;;1.10;;
12976;SDS011;6553;48.412;9.514;2022-09-12T16:51:27;1.08;;;1.00;;
12976;SDS011;6553;48.412;9.514;2022-09-12T16:53:56;0.90;;;0.90;;
12976;SDS011;6553;48.412;9.514;2022-09-12T16:56:22;1.10;;;1.10;;
12976;SDS011;6553;48.412;9.514;2022-09-12T16:58:49;1.00;;;1.00;;
12976;SDS011;6553;48.412;9.514;2022-09-12T17:01:25;1.00;;;1.00;;
12976;SDS011;6553;48.412;9.514;2022-09-12T17:03:55;0.90;;;0.90;;
12976;SDS011;6553;48.412;9.514;2022-09-12T17:06:23;1.10;;;1.10;;
12976;SDS011;6553;48.412;9.514;2022-09-12T17:08:50;0.80;;;0.80;;
12976;SDS011;6553;48.412;9.514;2022-09-12T17:11:19;0.95;;;0.95;;
12976;SDS011;6553;48.412;9.514;2022-09-12T17:13:56;2.15;;;1.10;;
12976;SDS011;6553;48.412;9.514;2022-09-12T17:16:23;0.88;;;0.88;;
12976;SDS011;6553;48.412;9.514;2022-09-12T17:18:50;1.20;;;1.10;;
12976;SDS011;6553;48.412;9.514;2022-09-12T17:21:18;1.45;;;0.93;;
12976;SDS011;6553;48.412;9.514;2022-09-12T17:23:45;1.00;;;1.00;;
12976;SDS011;6553;48.412;9.514;2022-09-12T17:26:12;2.25;;;1.17;;
12976;SDS011;6553;48.412;9.514;2022-09-12T17:28:39;1.27;;;1.17;;
12976;SDS011;6553;48.412;9.514;2022-09-12T17:31:06;1.00;;;1.00;;
12976;SDS011;6553;48.412;9.514;2022-09-12T17:33:35;1.02;;;1.00;;
12976;SDS011;6553;48.412;9.514;2022-09-12T17:36:05;1.25;;;1.15;;
12976;SDS011;6553;48.412;9.514;2022-09-12T17:38:39;1.40;;;1.30;;
12976;SDS011;6553;48.412;9.514;2022-09-12T17:41:14;1.00;;;1.00;;
12976;SDS011;6553;48.412;9.514;2022-09-12T17:43:50;1.50;;;1.00;;
12976;SDS011;6553;48.412;9.514;2022-09-12T17:46:21;1.20;;;1.10;;
12976;SDS011;6553;48.412;9.514;2022-09-12T17:48:59;1.38;;;1.27;;
12976;SDS011;6553;48.412;9.514;2022-09-12T17:51:26;1.10;;;1.10;;
12976;SDS011;6553;48.412;9.514;2022-09-12T17:54:14;1.05;;;1.00;;
12976;SDS011;6553;48.412;9.514;2022-09-12T17:56:45;1.02;;;1.02;;
12976;SDS011;6553;48.412;9.514;2022-09-12T17:59:17;1.27;;;1.17;;
12976;SDS011;6553;48.412;9.514;2022-09-12T18:01:46;1.13;;;1.08;;
12976;SDS011;6553;48.412;9.514;2022-09-12T18:04:30;1.27;;;1.10;;
12976;SDS011;6553;48.412;9.514;2022-09-12T18:06:56;1.38;;;1.20;;
12976;SDS011;6553;48.412;9.514;2022-09-12T18:09:24;1.08;;;0.93;;